Observation data for Seminole on 07/11/2018      Previous  Date       Current Mesonet Observations  Soil Data  Daily Summary Page  Observations in Plain Language
KSM1 110505Z 18003KT 23/19 A3015 RMK A01 T02250191  RH  086%=      5-min Rain = 0
KSM1 110510Z 18003KT 23/19 A3015 RMK A01 T02250190  RH  085%=      5-min Rain = 0
KSM1 110515Z 18003KT 23/19 A3015 RMK A01 T02250190  RH  085%=      5-min Rain = 0
KSM1 110520Z 18003KT 22/19 A3015 RMK A01 T02240192  RH  086%=      5-min Rain = 0
KSM1 110525Z 18003KT 22/19 A3015 RMK A01 T02230189  RH  085%=      5-min Rain = 0
KSM1 110530Z 18003KT 22/19 A3015 RMK A01 T02230189  RH  085%=      5-min Rain = 0
KSM1 110535Z 18003KT 22/19 A3015 RMK A01 T02230191  RH  087%=      5-min Rain = 0
KSM1 110540Z 17004KT 22/19 A3015 RMK A01 T02220190  RH  087%=      5-min Rain = 0
KSM1 110545Z 17005KT 22/19 A3015 RMK A01 T02220187  RH  085%=      5-min Rain = 0
KSM1 110550Z 17005KT 22/19 A3015 RMK A01 T02220186  RH  085%=      5-min Rain = 0
KSM1 110555Z 17005KT 22/19 A3015 RMK A01 T02220186  RH  085%=      5-min Rain = 0
KSM1 110600Z 17005KT 22/19 A3015 RMK A01 T02220186  RH  085%=      5-min Rain = 0
KSM1 110605Z 16003KT 22/19 A3015 RMK A01 T02210187  RH  086%=      5-min Rain = 0
KSM1 110610Z 16003KT 22/19 A3015 RMK A01 T02210189  RH  087%=      5-min Rain = 0
KSM1 110615Z 16002KT 22/19 A3016 RMK A01 T02210190  RH  087%=      5-min Rain = 0
KSM1 110620Z 17002KT 22/19 A3016 RMK A01 T02200190  RH  087%=      5-min Rain = 0
KSM1 110625Z 17003KT 22/19 A3015 RMK A01 T02200189  RH  087%=      5-min Rain = 0
KSM1 110630Z 19003KT 22/19 A3015 RMK A01 T02210186  RH  085%=      5-min Rain = 0
KSM1 110635Z 18003KT 22/18 A3015 RMK A01 T02230184  RH  083%=      5-min Rain = 0
KSM1 110640Z 17003KT 22/18 A3015 RMK A01 T02240183  RH  082%=      5-min Rain = 0
KSM1 110645Z 18003KT 22/18 A3015 RMK A01 T02240181  RH  081%=      5-min Rain = 0
KSM1 110650Z 18004KT 22/18 A3015 RMK A01 T02240180  RH  081%=      5-min Rain = 0
KSM1 110655Z 18004KT 22/18 A3015 RMK A01 T02230179  RH  080%=      5-min Rain = 0
KSM1 110700Z 18004KT 22/18 A3015 RMK A01 T02230179  RH  080%=      5-min Rain = 0
KSM1 110705Z 18005KT 22/18 A3015 RMK A01 T02230178  RH  080%=      5-min Rain = 0
KSM1 110710Z 17005KT 22/18 A3015 RMK A01 T02220178  RH  080%=      5-min Rain = 0
KSM1 110715Z 17006KT 22/18 A3014 RMK A01 T02210176  RH  079%=      5-min Rain = 0
KSM1 110720Z 17005KT 22/18 A3014 RMK A01 T02210175  RH  079%=      5-min Rain = 0
KSM1 110725Z 17005KT 22/17 A3015 RMK A01 T02200172  RH  078%=      5-min Rain = 0
KSM1 110730Z 18004KT 22/17 A3015 RMK A01 T02200171  RH  077%=      5-min Rain = 0
KSM1 110735Z 17004KT 22/17 A3015 RMK A01 T02200170  RH  077%=      5-min Rain = 0
KSM1 110740Z 18004KT 22/17 A3014 RMK A01 T02190170  RH  077%=      5-min Rain = 0
KSM1 110745Z 18005KT 22/17 A3014 RMK A01 T02180170  RH  078%=      5-min Rain = 0
KSM1 110750Z 18005KT 22/17 A3014 RMK A01 T02180168  RH  077%=      5-min Rain = 0
KSM1 110755Z 18006KT 22/17 A3014 RMK A01 T02180165  RH  076%=      5-min Rain = 0
KSM1 110800Z 18006KT 22/16 A3014 RMK A01 T02180163  RH  075%=      5-min Rain = 0
KSM1 110805Z 18006KT 22/16 A3014 RMK A01 T02170162  RH  074%=      5-min Rain = 0
KSM1 110810Z 19006KT 22/16 A3014 RMK A01 T02160161  RH  074%=      5-min Rain = 0
KSM1 110815Z 18006KT 22/16 A3014 RMK A01 T02150159  RH  074%=      5-min Rain = 0
KSM1 110820Z 18006KT 22/16 A3014 RMK A01 T02150158  RH  073%=      5-min Rain = 0
KSM1 110825Z 17005KT 21/16 A3014 RMK A01 T02140159  RH  074%=      5-min Rain = 0
KSM1 110830Z 17004KT 21/16 A3014 RMK A01 T02130160  RH  075%=      5-min Rain = 0
KSM1 110835Z 16003KT 21/16 A3014 RMK A01 T02120164  RH  078%=      5-min Rain = 0
KSM1 110840Z 15003KT 21/17 A3014 RMK A01 T02110165  RH  079%=      5-min Rain = 0
KSM1 110845Z 15002KT 21/17 A3014 RMK A01 T02100165  RH  079%=      5-min Rain = 0
KSM1 110850Z 16002KT 21/16 A3014 RMK A01 T02100164  RH  079%=      5-min Rain = 0
KSM1 110855Z 16002KT 21/16 A3014 RMK A01 T02100163  RH  078%=      5-min Rain = 0
KSM1 110900Z 16002KT 21/16 A3014 RMK A01 T02100159  RH  076%=      5-min Rain = 0
KSM1 110905Z 17002KT 21/16 A3013 RMK A01 T02110157  RH  075%=      5-min Rain = 0
KSM1 110910Z 17002KT 21/16 A3013 RMK A01 T02120155  RH  073%=      5-min Rain = 0
KSM1 110915Z 17003KT 21/16 A3013 RMK A01 T02130156  RH  073%=      5-min Rain = 0
KSM1 110920Z 17003KT 21/16 A3013 RMK A01 T02130155  RH  073%=      5-min Rain = 0
KSM1 110925Z 16004KT 21/16 A3013 RMK A01 T02120155  RH  073%=      5-min Rain = 0
KSM1 110930Z 15004KT 21/16 A3012 RMK A01 T02120158  RH  075%=      5-min Rain = 0
KSM1 110935Z 15005KT 21/16 A3012 RMK A01 T02100156  RH  075%=      5-min Rain = 0
KSM1 110940Z 15005KT 21/16 A3012 RMK A01 T02090156  RH  075%=      5-min Rain = 0
KSM1 110945Z 15004KT 21/16 A3012 RMK A01 T02080159  RH  077%=      5-min Rain = 0
KSM1 110950Z 13005KT 21/16 A3012 RMK A01 T02060161  RH  079%=      5-min Rain = 0
KSM1 110955Z 13005KT 20/16 A3012 RMK A01 T02030158  RH  079%=      5-min Rain = 0
KSM1 111000Z 12005KT 20/16 A3012 RMK A01 T02030157  RH  078%=      5-min Rain = 0
KSM1 111005Z 11004KT 20/16 A3012 RMK A01 T02020158  RH  079%=      5-min Rain = 0
KSM1 111010Z 12004KT 20/16 A3012 RMK A01 T02010159  RH  080%=      5-min Rain = 0
KSM1 111015Z 13004KT 20/16 A3012 RMK A01 T02010157  RH  080%=      5-min Rain = 0
KSM1 111020Z 12004KT 20/16 A3012 RMK A01 T02010157  RH  080%=      5-min Rain = 0
KSM1 111025Z 13004KT 20/16 A3012 RMK A01 T02000158  RH  080%=      5-min Rain = 0
KSM1 111030Z 13004KT 20/16 A3012 RMK A01 T01990156  RH  079%=      5-min Rain = 0
KSM1 111035Z 12004KT 20/16 A3012 RMK A01 T01990156  RH  080%=      5-min Rain = 0
KSM1 111040Z 11004KT 20/15 A3012 RMK A01 T01990154  RH  079%=      5-min Rain = 0
KSM1 111045Z 11005KT 20/15 A3013 RMK A01 T01990152  RH  078%=      5-min Rain = 0
KSM1 111050Z 12004KT 20/15 A3013 RMK A01 T01990150  RH  077%=      5-min Rain = 0
KSM1 111055Z 12004KT 20/15 A3013 RMK A01 T01990150  RH  077%=      5-min Rain = 0
KSM1 111100Z 12005KT 20/15 A3013 RMK A01 T01980149  RH  076%=      5-min Rain = 0
KSM1 111105Z 12004KT 20/15 A3013 RMK A01 T01980149  RH  077%=      5-min Rain = 0
KSM1 111110Z 11004KT 20/15 A3013 RMK A01 T01960151  RH  079%=      5-min Rain = 0
KSM1 111115Z 10005KT 19/15 A3013 RMK A01 T01940151  RH  079%=      5-min Rain = 0
KSM1 111120Z 11005KT 19/15 A3013 RMK A01 T01930150  RH  079%=      5-min Rain = 0
KSM1 111125Z 10005KT 19/15 A3013 RMK A01 T01930149  RH  080%=      5-min Rain = 0
KSM1 111130Z 10005KT 19/15 A3014 RMK A01 T01920150  RH  081%=      5-min Rain = 0
KSM1 111135Z 10004KT 19/15 A3014 RMK A01 T01910149  RH  080%=      5-min Rain = 0
KSM1 111140Z 09004KT 19/15 A3014 RMK A01 T01900150  RH  081%=      5-min Rain = 0
KSM1 111145Z 09003KT 19/15 A3014 RMK A01 T01890150  RH  082%=      5-min Rain = 0
KSM1 111150Z 09004KT 19/15 A3014 RMK A01 T01890150  RH  082%=      5-min Rain = 0
KSM1 111155Z 10004KT 19/15 A3015 RMK A01 T01890150  RH  082%=      5-min Rain = 0
KSM1 111200Z 10005KT 19/15 A3015 RMK A01 T01890148  RH  080%=      5-min Rain = 0
KSM1 111205Z 10004KT 19/15 A3015 RMK A01 T01900148  RH  080%=      5-min Rain = 0
KSM1 111210Z 11004KT 19/15 A3015 RMK A01 T01890149  RH  081%=      5-min Rain = 0
KSM1 111215Z 11005KT 19/15 A3015 RMK A01 T01890149  RH  081%=      5-min Rain = 0
KSM1 111220Z 11005KT 19/15 A3015 RMK A01 T01910149  RH  080%=      5-min Rain = 0
KSM1 111225Z 11005KT 19/15 A3015 RMK A01 T01930149  RH  079%=      5-min Rain = 0
KSM1 111230Z 12005KT 19/15 A3015 RMK A01 T01940149  RH  079%=      5-min Rain = 0
KSM1 111235Z 12005KT 20/15 A3015 RMK A01 T01950149  RH  078%=      5-min Rain = 0
KSM1 111240Z 12005KT 20/15 A3015 RMK A01 T01950151  RH  079%=      5-min Rain = 0
KSM1 111245Z 13005KT 20/15 A3015 RMK A01 T01970152  RH  079%=      5-min Rain = 0
KSM1 111250Z 13005KT 20/15 A3016 RMK A01 T01990153  RH  078%=      5-min Rain = 0
KSM1 111255Z 13004KT 20/16 A3016 RMK A01 T02010155  RH  078%=      5-min Rain = 0
KSM1 111300Z 12005KT 20/15 A3016 RMK A01 T02020154  RH  077%=      5-min Rain = 0
KSM1 111305Z 13005KT 20/16 A3016 RMK A01 T02040155  RH  077%=      5-min Rain = 0
KSM1 111310Z 13005KT 21/16 A3016 RMK A01 T02050155  RH  076%=      5-min Rain = 0
KSM1 111315Z 13005KT 21/16 A3016 RMK A01 T02070156  RH  076%=      5-min Rain = 0
KSM1 111320Z 13005KT 21/16 A3016 RMK A01 T02090156  RH  075%=      5-min Rain = 0
KSM1 111325Z 14006KT 21/16 A3016 RMK A01 T02110158  RH  075%=      5-min Rain = 0
KSM1 111330Z 14007KT 21/16 A3016 RMK A01 T02130159  RH  075%=      5-min Rain = 0
KSM1 111335Z 14008KT 22/16 A3016 RMK A01 T02150159  RH  074%=      5-min Rain = 0
KSM1 111340Z 15008KT 22/16 A3016 RMK A01 T02170160  RH  074%=      5-min Rain = 0
KSM1 111345Z 15008KT 22/16 A3016 RMK A01 T02190161  RH  073%=      5-min Rain = 0
KSM1 111350Z 16009KT 22/16 A3016 RMK A01 T02210162  RH  073%=      5-min Rain = 0
KSM1 111355Z 16008KT 22/16 A3016 RMK A01 T02240164  RH  072%=      5-min Rain = 0
KSM1 111400Z 16010KT 23/16 A3016 RMK A01 T02260163  RH  071%=      5-min Rain = 0
KSM1 111405Z 17011KT 23/16 A3016 RMK A01 T02280162  RH  070%=      5-min Rain = 0
KSM1 111410Z 17012KT 23/16 A3016 RMK A01 T02290162  RH  069%=      5-min Rain = 0
KSM1 111415Z 17011KT 23/16 A3016 RMK A01 T02300163  RH  069%=      5-min Rain = 0
KSM1 111420Z 17013KT 23/16 A3016 RMK A01 T02310162  RH  068%=      5-min Rain = 0
KSM1 111425Z 17013G18KT 23/16 A3016 RMK A01 T02340163  RH  068%=      5-min Rain = 0
KSM1 111430Z 17012KT 24/16 A3016 RMK A01 T02350162  RH  067%=      5-min Rain = 0
KSM1 111435Z 17011KT 24/16 A3016 RMK A01 T02370164  RH  067%=      5-min Rain = 0
KSM1 111440Z 17012KT 24/16 A3016 RMK A01 T02400163  RH  065%=      5-min Rain = 0
KSM1 111445Z 17013KT 24/16 A3016 RMK A01 T02420163  RH  064%=      5-min Rain = 0
KSM1 111450Z 17012KT 25/17 A3016 RMK A01 T02450165  RH  064%=      5-min Rain = 0
KSM1 111455Z 16011KT 25/17 A3016 RMK A01 T02490166  RH  063%=      5-min Rain = 0
KSM1 111500Z 17013KT 25/16 A3016 RMK A01 T02510162  RH  060%=      5-min Rain = 0
KSM1 111505Z 17014KT 25/16 A3016 RMK A01 T02520158  RH  059%=      5-min Rain = 0
KSM1 111510Z 17012KT 25/16 A3016 RMK A01 T02540159  RH  059%=      5-min Rain = 0
KSM1 111515Z 17012KT 25/16 A3016 RMK A01 T02540159  RH  058%=      5-min Rain = 0
KSM1 111520Z 18012G17KT 26/16 A3016 RMK A01 T02570159  RH  057%=      5-min Rain = 0
KSM1 111525Z 18011KT 26/16 A3016 RMK A01 T02560160  RH  058%=      5-min Rain = 0
KSM1 111530Z 19012KT 26/16 A3016 RMK A01 T02580158  RH  057%=      5-min Rain = 0
KSM1 111535Z 18013KT 26/16 A3016 RMK A01 T02590157  RH  056%=      5-min Rain = 0
KSM1 111540Z 17011G17KT 26/16 A3016 RMK A01 T02620159  RH  056%=      5-min Rain = 0
KSM1 111545Z 18011KT 27/16 A3016 RMK A01 T02650161  RH  055%=      5-min Rain = 0
KSM1 111550Z 18012KT 26/16 A3016 RMK A01 T02640160  RH  055%=      5-min Rain = 0
KSM1 111555Z 18012G17KT 26/16 A3016 RMK A01 T02640160  RH  055%=      5-min Rain = 0
KSM1 111600Z 17010G15KT 27/16 A3016 RMK A01 T02680159  RH  054%=      5-min Rain = 0
KSM1 111605Z 17012KT 27/16 A3016 RMK A01 T02700159  RH  053%=      5-min Rain = 0
KSM1 111610Z 18011KT 27/16 A3016 RMK A01 T02700160  RH  053%=      5-min Rain = 0
KSM1 111615Z 18011KT 27/16 A3016 RMK A01 T02730160  RH  053%=      5-min Rain = 0
KSM1 111620Z 18010KT 27/16 A3016 RMK A01 T02720161  RH  053%=      5-min Rain = 0
KSM1 111625Z 18010KT 28/16 A3016 RMK A01 T02750161  RH  052%=      5-min Rain = 0
KSM1 111630Z 17011KT 28/16 A3016 RMK A01 T02750162  RH  053%=      5-min Rain = 0
KSM1 111635Z 18009KT 28/17 A3016 RMK A01 T02780165  RH  053%=      5-min Rain = 0.01
KSM1 111640Z 18011KT 28/16 A3016 RMK A01 T02790164  RH  052%=      5-min Rain = 0
KSM1 111645Z 17010KT 28/16 A3016 RMK A01 T02810163  RH  051%=      5-min Rain = 0
KSM1 111650Z 17010G15KT 28/16 A3015 RMK A01 T02800163  RH  051%=      5-min Rain = 0
KSM1 111655Z 17011G16KT 28/16 A3015 RMK A01 T02820162  RH  051%=      5-min Rain = 0
KSM1 111700Z 18010G15KT 28/16 A3015 RMK A01 T02830163  RH  051%=      5-min Rain = 0
KSM1 111705Z 18010KT 28/16 A3015 RMK A01 T02830162  RH  050%=      5-min Rain = 0
KSM1 111710Z 17010KT 28/16 A3015 RMK A01 T02840163  RH  050%=      5-min Rain = 0
KSM1 111715Z 17012KT 29/16 A3015 RMK A01 T02880159  RH  048%=      5-min Rain = 0
KSM1 111720Z 16011KT 29/16 A3015 RMK A01 T02890159  RH  047%=      5-min Rain = 0
KSM1 111725Z 16012KT 29/16 A3015 RMK A01 T02900156  RH  046%=      5-min Rain = 0
KSM1 111730Z 17012KT 29/16 A3015 RMK A01 T02900155  RH  046%=      5-min Rain = 0
KSM1 111735Z 16011KT 29/15 A3015 RMK A01 T02920153  RH  045%=      5-min Rain = 0
KSM1 111740Z 16011KT 29/15 A3014 RMK A01 T02920153  RH  045%=      5-min Rain = 0
KSM1 111745Z 16011G17KT 29/15 A3014 RMK A01 T02940154  RH  045%=      5-min Rain = 0
KSM1 111750Z 17013KT 30/15 A3014 RMK A01 T02970153  RH  044%=      5-min Rain = 0
KSM1 111755Z 17010G15KT 30/15 A3014 RMK A01 T02980153  RH  043%=      5-min Rain = 0
KSM1 111800Z 16012G17KT 30/15 A3013 RMK A01 T03000153  RH  043%=      5-min Rain = 0
KSM1 111805Z 17013KT 30/15 A3013 RMK A01 T03010148  RH  041%=      5-min Rain = 0
KSM1 111810Z 18014G19KT 30/15 A3013 RMK A01 T02990146  RH  041%=      5-min Rain = 0
KSM1 111815Z 17012G17KT 30/14 A3013 RMK A01 T02990144  RH  041%=      5-min Rain = 0
KSM1 111820Z 16013KT 30/15 A3013 RMK A01 T03000150  RH  042%=      5-min Rain = 0
KSM1 111825Z 16013KT 30/15 A3012 RMK A01 T03030151  RH  042%=      5-min Rain = 0
KSM1 111830Z 17014KT 31/15 A3012 RMK A01 T03060149  RH  040%=      5-min Rain = 0
KSM1 111835Z 16012G18KT 31/15 A3012 RMK A01 T03050146  RH  040%=      5-min Rain = 0
KSM1 111840Z 16013KT 30/14 A3012 RMK A01 T03030144  RH  040%=      5-min Rain = 0
KSM1 111845Z 14012KT 30/14 A3012 RMK A01 T03030142  RH  039%=      5-min Rain = 0
KSM1 111850Z 16013G20KT 31/14 A3011 RMK A01 T03070143  RH  038%=      5-min Rain = 0
KSM1 111855Z 17014G19KT 31/14 A3011 RMK A01 T03080141  RH  038%=      5-min Rain = 0
KSM1 111900Z 17012G19KT 31/14 A3011 RMK A01 T03070143  RH  039%=      5-min Rain = 0
KSM1 111905Z 18014G19KT 31/14 A3011 RMK A01 T03110143  RH  038%=      5-min Rain = 0
KSM1 111910Z 17012G18KT 31/14 A3011 RMK A01 T03110140  RH  037%=      5-min Rain = 0
KSM1 111915Z 17015G22KT 31/14 A3011 RMK A01 T03100136  RH  036%=      5-min Rain = 0
KSM1 111920Z 18013G18KT 31/14 A301 RMK A01 T03100142  RH  038%=      5-min Rain = 0
KSM1 111925Z 17013G19KT 32/14 A301 RMK A01 T03160141  RH  036%=      5-min Rain = 0
KSM1 111930Z 18014KT 32/14 A301 RMK A01 T03170138  RH  035%=      5-min Rain = 0
KSM1 111935Z 17015G20KT 32/14 A301 RMK A01 T03160138  RH  035%=      5-min Rain = 0
KSM1 111940Z 16013G19KT 32/14 A3009 RMK A01 T03150135  RH  035%=      5-min Rain = 0
KSM1 111945Z 16016G22KT 32/13 A3009 RMK A01 T03180134  RH  034%=      5-min Rain = 0
KSM1 111950Z 17014KT 32/14 A3009 RMK A01 T03160137  RH  035%=      5-min Rain = 0
KSM1 111955Z 16013G20KT 31/14 A3009 RMK A01 T03140139  RH  036%=      5-min Rain = 0
KSM1 112000Z 17014G21KT 32/14 A3009 RMK A01 T03160136  RH  035%=      5-min Rain = 0
KSM1 112005Z 17013KT 32/13 A3008 RMK A01 T03160134  RH  034%=      5-min Rain = 0
KSM1 112010Z 17013KT 32/14 A3008 RMK A01 T03200138  RH  035%=      5-min Rain = 0
KSM1 112015Z 15012G17KT 32/14 A3008 RMK A01 T03180136  RH  035%=      5-min Rain = 0
KSM1 112020Z 16014G21KT 32/14 A3008 RMK A01 T03190138  RH  035%=      5-min Rain = 0
KSM1 112025Z 17013G19KT 32/13 A3008 RMK A01 T03210133  RH  033%=      5-min Rain = 0
KSM1 112030Z 17011G17KT 32/13 A3007 RMK A01 T03210134  RH  033%=      5-min Rain = 0
KSM1 112035Z 17013KT 32/13 A3007 RMK A01 T03190132  RH  033%=      5-min Rain = 0
KSM1 112040Z 16012G18KT 32/13 A3007 RMK A01 T03210133  RH  033%=      5-min Rain = 0
KSM1 112045Z 15012KT 32/13 A3007 RMK A01 T03220130  RH  032%=      5-min Rain = 0
KSM1 112050Z 16013G21KT 32/13 A3006 RMK A01 T03220130  RH  032%=      5-min Rain = 0
KSM1 112055Z 17016G21KT 32/13 A3006 RMK A01 T03230129  RH  032%=      5-min Rain = 0
KSM1 112100Z 16010KT 32/13 A3006 RMK A01 T03210129  RH  032%=      5-min Rain = 0
KSM1 112105Z 16014G19KT 32/13 A3005 RMK A01 T03230128  RH  032%=      5-min Rain = 0
KSM1 112110Z 16014G19KT 32/13 A3005 RMK A01 T03230130  RH  032%=      5-min Rain = 0
KSM1 112115Z 16013G18KT 33/13 A3005 RMK A01 T03250130  RH  032%=      5-min Rain = 0
KSM1 112120Z 18014G20KT 33/13 A3005 RMK A01 T03250129  RH  032%=      5-min Rain = 0
KSM1 112125Z 18011G17KT 32/13 A3005 RMK A01 T03220131  RH  033%=      5-min Rain = 0
KSM1 112130Z 15014KT 32/13 A3005 RMK A01 T03220127  RH  032%=      5-min Rain = 0
KSM1 112135Z 17012G17KT 32/13 A3005 RMK A01 T03240130  RH  032%=      5-min Rain = 0
KSM1 112140Z 19013KT 33/13 A3005 RMK A01 T03260127  RH  031%=      5-min Rain = 0
KSM1 112145Z 18009G14KT 33/13 A3004 RMK A01 T03260127  RH  031%=      5-min Rain = 0
KSM1 112150Z 18011G16KT 33/13 A3004 RMK A01 T03270127  RH  031%=      5-min Rain = 0
KSM1 112155Z 17009G15KT 33/13 A3004 RMK A01 T03260128  RH  031%=      5-min Rain = 0
KSM1 112200Z 16014G19KT 33/13 A3004 RMK A01 T03270129  RH  031%=      5-min Rain = 0
KSM1 112205Z 18011G16KT 33/13 A3004 RMK A01 T03250131  RH  032%=      5-min Rain = 0
KSM1 112210Z 16013G18KT 33/13 A3003 RMK A01 T03260129  RH  031%=      5-min Rain = 0
KSM1 112215Z 16012KT 33/13 A3003 RMK A01 T03260129  RH  032%=      5-min Rain = 0
KSM1 112220Z 16012KT 33/13 A3003 RMK A01 T03250128  RH  031%=      5-min Rain = 0
KSM1 112225Z 16011G18KT 32/13 A3003 RMK A01 T03230129  RH  032%=      5-min Rain = 0
KSM1 112230Z 17012KT 32/13 A3003 RMK A01 T03210128  RH  032%=      5-min Rain = 0
KSM1 112235Z 15010G16KT 32/13 A3003 RMK A01 T03230129  RH  032%=      5-min Rain = 0
KSM1 112240Z 17013G18KT 33/13 A3003 RMK A01 T03270129  RH  031%=      5-min Rain = 0
KSM1 112245Z 17012KT 33/13 A3003 RMK A01 T03270128  RH  031%=      5-min Rain = 0
KSM1 112250Z 16011KT 33/13 A3002 RMK A01 T03260127  RH  031%=      5-min Rain = 0
KSM1 112255Z 18012G19KT 33/13 A3002 RMK A01 T03280127  RH  031%=      5-min Rain = 0
KSM1 112300Z 18012KT 33/12 A3003 RMK A01 T03250123  RH  031%=      5-min Rain = 0
KSM1 112305Z 18011KT 33/12 A3003 RMK A01 T03250122  RH  030%=      5-min Rain = 0
KSM1 112310Z 17012G20KT 33/12 A3003 RMK A01 T03250122  RH  030%=      5-min Rain = 0
KSM1 112315Z 18013KT 32/12 A3003 RMK A01 T03240123  RH  030%=      5-min Rain = 0
KSM1 112320Z 16011KT 33/12 A3003 RMK A01 T03250124  RH  031%=      5-min Rain = 0
KSM1 112325Z 16011KT 33/13 A3003 RMK A01 T03260126  RH  031%=      5-min Rain = 0
KSM1 112330Z 16011KT 32/12 A3002 RMK A01 T03230124  RH  031%=      5-min Rain = 0
KSM1 112335Z 18011KT 32/13 A3002 RMK A01 T03190125  RH  032%=      5-min Rain = 0
KSM1 112340Z 18010KT 32/13 A3002 RMK A01 T03190125  RH  032%=      5-min Rain = 0
KSM1 112345Z 17009G16KT 32/13 A3002 RMK A01 T03210126  RH  032%=      5-min Rain = 0
KSM1 112350Z 17012G17KT 32/12 A3002 RMK A01 T03210123  RH  031%=      5-min Rain = 0
KSM1 112355Z 17012KT 32/12 A3002 RMK A01 T03210122  RH  031%=      5-min Rain = 0
KSM1 120000Z 17013G18KT 32/12 A3002 RMK A01 T03220123  RH  031%=      5-min Rain = 0
KSM1 120005Z 17013KT 32/12 A3002 RMK A01 T03200123  RH  031%=      5-min Rain = 0
KSM1 120010Z 16011KT 32/12 A3002 RMK A01 T03200123  RH  031%=      5-min Rain = 0
KSM1 120015Z 17012G19KT 32/13 A3002 RMK A01 T03190125  RH  032%=      5-min Rain = 0
KSM1 120020Z 17011KT 32/13 A3002 RMK A01 T03180126  RH  032%=      5-min Rain = 0
KSM1 120025Z 17010KT 32/12 A3002 RMK A01 T03160124  RH  032%=      5-min Rain = 0
KSM1 120030Z 16010KT 32/13 A3002 RMK A01 T03160125  RH  032%=      5-min Rain = 0
KSM1 120035Z 17011KT 31/13 A3003 RMK A01 T03130125  RH  033%=      5-min Rain = 0
KSM1 120040Z 18008KT 31/13 A3003 RMK A01 T03100127  RH  034%=      5-min Rain = 0
KSM1 120045Z 18010KT 31/13 A3003 RMK A01 T03080125  RH  034%=      5-min Rain = 0
KSM1 120050Z 18010KT 31/13 A3003 RMK A01 T03070125  RH  034%=      5-min Rain = 0
KSM1 120055Z 17010KT 31/13 A3003 RMK A01 T03060125  RH  034%=      5-min Rain = 0
KSM1 120100Z 17010KT 31/13 A3003 RMK A01 T03050126  RH  035%=      5-min Rain = 0
KSM1 120105Z 16010KT 30/13 A3003 RMK A01 T03040126  RH  035%=      5-min Rain = 0
KSM1 120110Z 17008KT 30/13 A3003 RMK A01 T03020129  RH  036%=      5-min Rain = 0
KSM1 120115Z 17007KT 30/13 A3003 RMK A01 T02990131  RH  037%=      5-min Rain = 0
KSM1 120120Z 17007KT 30/13 A3003 RMK A01 T02980131  RH  037%=      5-min Rain = 0
KSM1 120125Z 18007KT 30/13 A3004 RMK A01 T02960132  RH  038%=      5-min Rain = 0
KSM1 120130Z 17007KT 30/13 A3004 RMK A01 T02950133  RH  039%=      5-min Rain = 0
KSM1 120135Z 17006KT 29/14 A3004 RMK A01 T02920136  RH  040%=      5-min Rain = 0
KSM1 120140Z 17007KT 29/14 A3004 RMK A01 T02900136  RH  040%=      5-min Rain = 0
KSM1 120145Z 17008KT 29/13 A3004 RMK A01 T02900134  RH  040%=      5-min Rain = 0
KSM1 120150Z 17008KT 29/14 A3004 RMK A01 T02880135  RH  041%=      5-min Rain = 0
KSM1 120155Z 17007KT 29/14 A3004 RMK A01 T02860136  RH  041%=      5-min Rain = 0
KSM1 120200Z 17007KT 28/14 A3004 RMK A01 T02840136  RH  042%=      5-min Rain = 0
KSM1 120205Z 17008KT 28/14 A3004 RMK A01 T02820136  RH  042%=      5-min Rain = 0
KSM1 120210Z 17008KT 28/14 A3004 RMK A01 T02810136  RH  042%=      5-min Rain = 0
KSM1 120215Z 17008KT 28/14 A3004 RMK A01 T02810135  RH  042%=      5-min Rain = 0
KSM1 120220Z 17008KT 28/14 A3005 RMK A01 T02800135  RH  043%=      5-min Rain = 0
KSM1 120225Z 17008KT 28/14 A3005 RMK A01 T02790135  RH  043%=      5-min Rain = 0
KSM1 120230Z 17007KT 28/14 A3005 RMK A01 T02780136  RH  043%=      5-min Rain = 0
KSM1 120235Z 17007KT 28/14 A3005 RMK A01 T02750139  RH  045%=      5-min Rain = 0
KSM1 120240Z 16006KT 27/14 A3005 RMK A01 T02720141  RH  047%=      5-min Rain = 0
KSM1 120245Z 16007KT 27/14 A3005 RMK A01 T02700142  RH  047%=      5-min Rain = 0
KSM1 120250Z 16007KT 27/14 A3006 RMK A01 T02690143  RH  048%=      5-min Rain = 0
KSM1 120255Z 17007KT 27/14 A3006 RMK A01 T02680143  RH  048%=      5-min Rain = 0
KSM1 120300Z 17007KT 27/14 A3006 RMK A01 T02670142  RH  048%=      5-min Rain = 0
KSM1 120305Z 17008KT 27/14 A3006 RMK A01 T02680140  RH  048%=      5-min Rain = 0
KSM1 120310Z 17008KT 27/14 A3006 RMK A01 T02680140  RH  047%=      5-min Rain = 0
KSM1 120315Z 16008KT 27/14 A3006 RMK A01 T02670140  RH  047%=      5-min Rain = 0
KSM1 120320Z 16007KT 27/14 A3007 RMK A01 T02660142  RH  048%=      5-min Rain = 0
KSM1 120325Z 16006KT 26/14 A3007 RMK A01 T02630144  RH  050%=      5-min Rain = 0
KSM1 120330Z 16006KT 26/15 A3007 RMK A01 T02590145  RH  052%=      5-min Rain = 0
KSM1 120335Z 16006KT 26/15 A3008 RMK A01 T02560146  RH  053%=      5-min Rain = 0
KSM1 120340Z 15006KT 26/15 A3008 RMK A01 T02550146  RH  053%=      5-min Rain = 0
KSM1 120345Z 15006KT 25/15 A3008 RMK A01 T02520148  RH  055%=      5-min Rain = 0
KSM1 120350Z 15006KT 25/15 A3008 RMK A01 T02510147  RH  055%=      5-min Rain = 0
KSM1 120355Z 15006KT 25/15 A3008 RMK A01 T02510147  RH  055%=      5-min Rain = 0
KSM1 120400Z 16006KT 25/15 A3008 RMK A01 T02490148  RH  056%=      5-min Rain = 0
KSM1 120405Z 16005KT 25/15 A3009 RMK A01 T02470148  RH  056%=      5-min Rain = 0
KSM1 120410Z 16006KT 25/15 A3009 RMK A01 T02470148  RH  056%=      5-min Rain = 0
KSM1 120415Z 16006KT 25/15 A3009 RMK A01 T02480146  RH  056%=      5-min Rain = 0
KSM1 120420Z 16007KT 25/14 A3009 RMK A01 T02490144  RH  054%=      5-min Rain = 0
KSM1 120425Z 16008KT 25/14 A3009 RMK A01 T02500142  RH  053%=      5-min Rain = 0
KSM1 120430Z 16008KT 25/14 A3009 RMK A01 T02510141  RH  053%=      5-min Rain = 0
KSM1 120435Z 16008KT 25/14 A301 RMK A01 T02510140  RH  053%=      5-min Rain = 0
KSM1 120440Z 17007KT 25/14 A301 RMK A01 T02510140  RH  052%=      5-min Rain = 0
KSM1 120445Z 17007KT 25/14 A301 RMK A01 T02510139  RH  052%=      5-min Rain = 0
KSM1 120450Z 17007KT 25/14 A301 RMK A01 T02510139  RH  052%=      5-min Rain = 0
KSM1 120455Z 17007KT 25/14 A301 RMK A01 T02500138  RH  052%=      5-min Rain = 0
KSM1 120500Z 17007KT 25/14 A301 RMK A01 T02500138  RH  052%=      5-min Rain = 0

Page generated in 0.0126 seconds.